createdAt,value
2022-10-15T00:01:26.943Z,93.73
2022-10-15T00:04:04.478Z,94.21
2022-10-15T00:06:43.167Z,94.42
2022-10-15T00:09:21.897Z,95.22
2022-10-15T00:12:00.425Z,94.94
2022-10-15T00:14:39.115Z,94.46
2022-10-15T00:17:17.870Z,97.49
2022-10-15T00:19:56.410Z,97.87
2022-10-15T00:22:35.158Z,98.82
2022-10-15T00:25:13.765Z,95.62
2022-10-15T00:27:50.756Z,96.24
2022-10-15T00:30:29.846Z,96.43
2022-10-15T00:33:08.378Z,97.48
2022-10-15T00:35:46.826Z,96.24
2022-10-15T00:38:25.442Z,96.82
2022-10-15T00:41:04.118Z,96.17
2022-10-15T00:43:45.849Z,95.89
2022-10-15T00:46:49.850Z,97.62
2022-10-15T00:49:31.137Z,96.61
2022-10-15T00:52:13.278Z,95.89
2022-10-15T00:54:54.339Z,96.71
2022-10-15T00:57:33.100Z,97.46
2022-10-15T01:00:15.284Z,98.92
2022-10-15T01:02:53.721Z,96.75
2022-10-15T01:05:32.453Z,96.55
2022-10-15T01:08:10.914Z,94.90
2022-10-15T01:10:51.132Z,93.29
2022-10-15T01:13:42.930Z,93.29
2022-10-15T01:16:34.642Z,96.01
2022-10-15T01:19:26.517Z,94.87
2022-10-15T01:22:14.014Z,96.46
2022-10-15T01:25:03.463Z,96.44
2022-10-15T01:28:13.241Z,97.42
2022-10-15T01:31:03.179Z,97.67
2022-10-15T01:33:55.365Z,98.19
2022-10-15T01:36:55.061Z,99.84
2022-10-15T01:39:52.075Z,100.00
2022-10-15T01:42:46.536Z,99.67
2022-10-15T01:45:37.564Z,99.85
2022-10-15T01:48:24.591Z,99.01
2022-10-15T01:51:11.476Z,97.58
2022-10-15T01:53:58.788Z,98.07
2022-10-15T01:56:49.627Z,97.13
2022-10-15T01:59:36.457Z,97.22
2022-10-15T02:02:22.957Z,97.00
2022-10-15T02:05:11.481Z,96.76
2022-10-15T02:07:57.907Z,97.24
2022-10-15T02:11:03.840Z,96.33
2022-10-15T02:14:05.225Z,96.16
2022-10-15T02:17:10.425Z,97.74
2022-10-15T02:20:06.722Z,100.00
2022-10-15T02:22:59.604Z,99.06
2022-10-15T02:25:45.535Z,97.83
2022-10-15T02:28:31.857Z,97.03
2022-10-15T02:31:17.986Z,95.98
2022-10-15T02:34:06.280Z,95.97
2022-10-15T02:36:52.460Z,96.54
2022-10-15T02:39:38.641Z,97.81
2022-10-15T02:42:24.664Z,96.70
2022-10-15T02:45:11.318Z,96.93
2022-10-15T02:48:00.593Z,96.57
2022-10-15T02:50:47.122Z,97.60
2022-10-15T02:53:33.376Z,100.00
2022-10-15T02:56:19.708Z,98.86
2022-10-15T02:59:06.662Z,99.29
2022-10-15T03:01:52.921Z,99.08
2022-10-15T03:04:39.564Z,99.87
2022-10-15T03:07:26.213Z,100.00
2022-10-15T03:10:14.076Z,100.00
2022-10-15T03:13:05.418Z,100.00
2022-10-15T03:15:54.793Z,100.00
2022-10-15T03:18:41.428Z,100.00
2022-10-15T03:21:30.972Z,100.00
2022-10-15T03:24:21.738Z,100.00
2022-10-15T03:27:08.709Z,100.00
2022-10-15T03:29:57.458Z,100.00
2022-10-15T03:35:35.658Z,100.00
2022-10-15T03:38:22.775Z,100.00
2022-10-15T03:41:11.648Z,100.00
2022-10-15T03:44:03.122Z,100.00
2022-10-15T03:46:50.376Z,100.00
2022-10-15T03:49:37.874Z,100.00
2022-10-15T03:52:25.843Z,100.00
2022-10-15T03:55:17.807Z,100.00
2022-10-15T03:58:05.179Z,100.00
2022-10-15T04:00:52.533Z,100.00
2022-10-15T04:03:40.079Z,99.77
2022-10-15T04:06:27.123Z,100.00
2022-10-15T04:09:15.619Z,99.87
2022-10-15T04:12:03.337Z,100.00
2022-10-15T04:14:50.419Z,100.00
2022-10-15T04:17:37.478Z,100.00
2022-10-15T04:20:25.572Z,100.00
2022-10-15T04:23:11.983Z,100.00
2022-10-15T04:26:01.058Z,100.00
2022-10-15T04:28:48.856Z,100.00
2022-10-15T04:31:38.389Z,100.00
2022-10-15T04:34:24.750Z,100.00
2022-10-15T04:37:14.085Z,100.00
2022-10-15T04:40:01.574Z,100.00
2022-10-15T04:42:48.913Z,100.00
2022-10-15T04:45:39.548Z,100.00
2022-10-15T04:48:30.706Z,100.00
2022-10-15T04:51:27.649Z,98.40
2022-10-15T04:54:25.410Z,99.48
2022-10-15T04:57:13.999Z,100.00
2022-10-15T05:00:02.661Z,99.65
2022-10-15T05:02:53.465Z,98.01
2022-10-15T05:05:40.259Z,98.74
2022-10-15T05:08:34.837Z,100.00
2022-10-15T05:11:26.465Z,100.00
2022-10-15T05:14:15.598Z,100.00
2022-10-15T05:17:10.161Z,100.00
2022-10-15T05:20:04.940Z,100.00
2022-10-15T05:25:54.171Z,100.00
2022-10-15T05:28:53.602Z,100.00
2022-10-15T05:31:51.425Z,100.00
2022-10-15T05:34:40.761Z,100.00
2022-10-15T05:37:30.807Z,98.97
2022-10-15T05:40:21.267Z,98.22
2022-10-15T05:43:14.283Z,97.57
2022-10-15T05:46:03.439Z,98.04
2022-10-15T05:48:53.823Z,98.28
2022-10-15T05:51:43.453Z,98.35
2022-10-15T05:54:54.447Z,98.95
2022-10-15T05:57:42.924Z,100.00
2022-10-15T06:00:30.994Z,100.00
2022-10-15T06:03:18.564Z,100.00
2022-10-15T06:06:05.381Z,100.00
2022-10-15T06:08:58.558Z,100.00
2022-10-15T06:11:49.411Z,100.00
2022-10-15T06:14:40.629Z,100.00
2022-10-15T06:17:28.557Z,100.00
2022-10-15T06:20:19.392Z,100.00
2022-10-15T06:23:25.439Z,100.00
2022-10-15T06:26:13.691Z,100.00
2022-10-15T06:29:06.477Z,100.00
2022-10-15T06:32:10.620Z,100.00
2022-10-15T06:35:16.734Z,100.00
2022-10-15T06:38:04.702Z,100.00
2022-10-15T06:40:54.851Z,100.00
2022-10-15T06:43:42.983Z,100.00
2022-10-15T06:46:33.426Z,100.00
2022-10-15T06:49:25.214Z,100.00
2022-10-15T06:52:21.449Z,100.00
2022-10-15T06:55:10.277Z,100.00
2022-10-15T06:57:57.386Z,100.00
2022-10-15T07:00:50.452Z,100.00
2022-10-15T07:03:44.936Z,100.00
2022-10-15T07:06:35.400Z,100.00
2022-10-15T07:09:26.265Z,100.00
2022-10-15T07:12:16.459Z,100.00
2022-10-15T07:18:01.863Z,100.00
2022-10-15T07:20:49.416Z,100.00
2022-10-15T07:23:39.749Z,100.00
2022-10-15T07:26:42.388Z,100.00
2022-10-15T07:29:29.217Z,100.00
2022-10-15T07:32:25.637Z,100.00
2022-10-15T07:35:29.467Z,100.00
2022-10-15T07:38:25.679Z,100.00
2022-10-15T07:41:18.939Z,100.00
2022-10-15T07:44:12.392Z,100.00
2022-10-15T07:46:59.054Z,100.00
2022-10-15T07:49:53.623Z,100.00
2022-10-15T07:52:40.380Z,100.00
2022-10-15T07:55:32.527Z,99.52
2022-10-15T07:58:19.396Z,100.00
2022-10-15T08:04:15.968Z,100.00
2022-10-15T08:07:06.796Z,100.00
2022-10-15T08:09:59.799Z,98.20
2022-10-15T08:12:47.770Z,94.92
2022-10-15T08:15:36.413Z,95.82
2022-10-15T08:18:24.816Z,98.65
2022-10-15T08:21:12.375Z,95.87
2022-10-15T08:24:02.026Z,94.94
2022-10-15T08:26:55.497Z,95.34
2022-10-15T08:29:55.908Z,95.75
2022-10-15T08:32:44.414Z,95.56
2022-10-15T08:35:35.456Z,93.88
2022-10-15T08:38:24.293Z,92.50
2022-10-15T08:41:29.424Z,92.01
2022-10-15T08:44:27.844Z,91.22
2022-10-15T08:47:41.508Z,88.65
2022-10-15T08:50:29.834Z,88.88
2022-10-15T08:53:20.801Z,87.27
2022-10-15T08:56:16.103Z,86.13
2022-10-15T08:59:16.458Z,84.97
2022-10-15T09:02:18.719Z,83.15
2022-10-15T09:05:27.723Z,82.37
2022-10-15T09:08:14.945Z,83.12
2022-10-15T09:11:16.397Z,82.99
2022-10-15T09:14:10.601Z,80.70
2022-10-15T09:17:00.416Z,79.10
2022-10-15T09:19:54.431Z,78.42
2022-10-15T09:25:38.561Z,79.81
2022-10-15T09:28:31.529Z,77.56
2022-10-15T09:31:29.417Z,78.72
2022-10-15T09:34:28.837Z,79.77
2022-10-15T09:37:16.101Z,77.62
2022-10-15T09:40:20.416Z,78.62
2022-10-15T09:43:09.475Z,78.31
2022-10-15T09:46:02.038Z,76.50
2022-10-15T09:49:19.094Z,74.89
2022-10-15T09:52:10.588Z,73.54
2022-10-15T09:55:11.412Z,71.54
2022-10-15T09:58:13.672Z,72.57
2022-10-15T10:01:07.412Z,70.20
2022-10-15T10:04:13.436Z,68.20
2022-10-15T10:07:04.389Z,68.59
2022-10-15T10:09:55.029Z,66.58
2022-10-15T10:12:41.887Z,67.30
2022-10-15T10:15:34.421Z,65.18
2022-10-15T10:18:39.013Z,66.95
2022-10-15T10:24:30.374Z,66.07
2022-10-15T10:27:40.603Z,68.71
2022-10-15T10:30:28.473Z,66.92
2022-10-15T10:33:45.709Z,66.25
2022-10-15T10:36:34.483Z,65.57
2022-10-15T10:39:26.472Z,68.49
2022-10-15T10:42:23.567Z,63.83
2022-10-15T10:45:19.110Z,64.73
2022-10-15T10:48:20.314Z,63.28
2022-10-15T10:51:14.028Z,62.08
2022-10-15T10:54:17.782Z,61.99
2022-10-15T11:00:13.549Z,65.58
2022-10-15T11:03:03.433Z,65.63
2022-10-15T11:12:23.141Z,63.13
2022-10-15T11:15:30.723Z,63.82
2022-10-15T11:18:21.976Z,63.19
2022-10-15T11:21:17.520Z,62.29
2022-10-15T11:24:18.098Z,63.00
2022-10-15T11:27:12.707Z,64.85
2022-10-15T11:30:06.133Z,65.74
2022-10-15T11:33:23.452Z,64.22
2022-10-15T11:36:26.429Z,65.05
2022-10-15T11:39:20.472Z,66.45
2022-10-15T11:42:21.645Z,65.00
2022-10-15T11:45:20.925Z,63.97
2022-10-15T11:48:19.412Z,65.50
2022-10-15T11:51:18.269Z,62.60
2022-10-15T11:54:14.504Z,62.52
2022-10-15T11:57:02.728Z,64.47
2022-10-15T11:59:56.393Z,61.89
2022-10-15T12:02:47.876Z,64.28
2022-10-15T12:05:54.585Z,62.49
2022-10-15T12:15:01.421Z,63.70
2022-10-15T12:18:06.421Z,61.76
2022-10-15T12:20:55.846Z,63.18
2022-10-15T12:23:46.421Z,60.16
2022-10-15T12:26:40.257Z,61.85
2022-10-15T12:29:31.186Z,61.99
2022-10-15T12:35:34.827Z,64.24
2022-10-15T12:38:25.744Z,62.21
2022-10-15T12:44:34.425Z,65.21
2022-10-15T12:47:45.127Z,63.08
2022-10-15T12:50:40.443Z,60.77
2022-10-15T12:56:33.401Z,62.88
2022-10-15T12:59:32.438Z,62.98
2022-10-15T13:02:31.506Z,64.01
2022-10-15T13:05:31.458Z,61.56
2022-10-15T13:08:24.628Z,62.07
2022-10-15T13:11:25.488Z,61.78
2022-10-15T13:14:12.441Z,62.05
2022-10-15T13:17:00.804Z,62.06
2022-10-15T13:19:52.059Z,60.60
2022-10-15T13:22:43.454Z,60.13
2022-10-15T13:25:38.464Z,61.51
2022-10-15T13:28:37.014Z,62.26
2022-10-15T13:31:30.819Z,60.06
2022-10-15T13:37:24.367Z,61.26
2022-10-15T13:40:18.646Z,62.79
2022-10-15T13:43:35.356Z,64.05
2022-10-15T13:46:32.463Z,60.83
2022-10-15T13:49:28.983Z,59.92
2022-10-15T13:52:32.412Z,61.46
2022-10-15T13:55:24.583Z,64.25
2022-10-15T13:58:29.224Z,62.31
2022-10-15T14:01:22.150Z,61.16
2022-10-15T14:04:16.595Z,62.63
2022-10-15T14:07:16.691Z,63.45
2022-10-15T14:10:10.649Z,61.94
2022-10-15T14:13:05.637Z,62.51
2022-10-15T14:18:52.664Z,62.21
2022-10-15T14:21:47.455Z,60.81
2022-10-15T14:24:47.958Z,61.27
2022-10-15T14:27:44.541Z,61.11
2022-10-15T14:30:32.931Z,60.72
2022-10-15T14:33:40.658Z,60.12
2022-10-15T14:36:30.358Z,60.75
2022-10-15T14:39:28.897Z,59.12
2022-10-15T14:42:31.454Z,62.07
2022-10-15T14:45:28.878Z,60.28
2022-10-15T14:48:27.689Z,60.32
2022-10-15T14:51:31.566Z,61.43
2022-10-15T14:54:19.238Z,60.20
2022-10-15T15:00:43.497Z,61.54
2022-10-15T15:03:32.512Z,60.81
2022-10-15T15:06:25.474Z,60.46
2022-10-15T15:09:20.937Z,60.24
2022-10-15T15:12:18.312Z,62.20
2022-10-15T15:18:13.025Z,62.10
2022-10-15T15:21:05.922Z,61.53
2022-10-15T15:23:52.098Z,61.19
2022-10-15T15:26:42.827Z,60.51
2022-10-15T15:29:32.032Z,62.60
2022-10-15T15:32:29.529Z,61.15
2022-10-15T15:35:21.715Z,62.83
2022-10-15T15:38:13.138Z,61.56
2022-10-15T15:41:01.934Z,61.13
2022-10-15T15:44:05.428Z,63.03
2022-10-15T15:46:56.224Z,63.71
2022-10-15T15:49:51.552Z,64.99
2022-10-15T15:55:39.604Z,66.36
2022-10-15T15:58:29.228Z,66.58
2022-10-15T16:01:22.897Z,66.32
2022-10-15T16:04:13.580Z,65.79
2022-10-15T16:07:04.470Z,66.93
2022-10-15T16:10:00.663Z,66.90
2022-10-15T16:16:02.536Z,67.73
2022-10-15T16:18:49.796Z,67.72
2022-10-15T16:24:42.438Z,69.86
2022-10-15T16:27:31.494Z,70.87
2022-10-15T16:30:28.182Z,69.90
2022-10-15T16:33:28.545Z,70.81
2022-10-15T16:36:25.462Z,69.99
2022-10-15T16:39:13.267Z,70.11
2022-10-15T16:42:14.959Z,70.28
2022-10-15T16:45:15.502Z,72.59
2022-10-15T16:48:02.238Z,72.51
2022-10-15T16:50:54.591Z,71.85
2022-10-15T16:53:50.031Z,71.38
2022-10-15T16:56:42.434Z,70.84
2022-10-15T16:59:31.994Z,70.72
2022-10-15T17:05:23.004Z,68.94
2022-10-15T17:08:15.791Z,67.97
2022-10-15T17:11:07.533Z,69.04
2022-10-15T17:13:56.636Z,69.50
2022-10-15T17:16:56.410Z,68.61
2022-10-15T17:19:45.483Z,69.31
2022-10-15T17:22:40.477Z,70.04
2022-10-15T17:25:32.961Z,69.42
2022-10-15T17:28:23.411Z,70.36
2022-10-15T17:31:19.638Z,70.68
2022-10-15T17:34:11.670Z,71.38
2022-10-15T17:37:02.539Z,70.68
2022-10-15T17:42:56.716Z,70.59
2022-10-15T17:45:43.888Z,71.74
2022-10-15T17:48:41.869Z,72.03
2022-10-15T17:54:34.454Z,72.46
2022-10-15T17:57:25.832Z,70.58
2022-10-15T18:00:14.516Z,71.00
2022-10-15T18:03:05.679Z,70.41
2022-10-15T18:05:57.433Z,71.92
2022-10-15T18:08:52.751Z,72.09
2022-10-15T18:14:59.012Z,72.01
2022-10-15T18:17:45.007Z,71.25
2022-10-15T18:20:35.455Z,72.25
2022-10-15T18:23:24.490Z,72.39
2022-10-15T18:26:19.521Z,71.13
2022-10-15T18:29:09.470Z,73.63
2022-10-15T18:32:07.441Z,73.26
2022-10-15T18:34:53.998Z,72.43
2022-10-15T18:37:52.505Z,72.17
2022-10-15T18:41:00.517Z,73.08
2022-10-15T18:43:52.462Z,72.67
2022-10-15T18:46:47.535Z,73.56
2022-10-15T18:49:36.372Z,73.20
2022-10-15T18:52:38.766Z,72.98
2022-10-15T18:55:37.551Z,74.05
2022-10-15T18:58:39.215Z,73.75
2022-10-15T19:04:25.782Z,75.16
2022-10-15T19:07:18.837Z,74.98
2022-10-15T19:16:11.967Z,76.35
2022-10-15T19:19:00.489Z,75.58
2022-10-15T19:21:57.425Z,73.51
2022-10-15T19:24:48.467Z,74.45
2022-10-15T19:27:36.897Z,77.28
2022-10-15T19:30:28.178Z,77.47
2022-10-15T19:33:17.471Z,77.78
2022-10-15T19:36:20.476Z,76.61
2022-10-15T19:39:11.787Z,77.47
2022-10-15T19:42:01.889Z,80.01
2022-10-15T19:44:54.720Z,79.74
2022-10-15T19:47:41.471Z,78.65
2022-10-15T19:50:30.838Z,79.96
2022-10-15T19:53:32.421Z,79.46
2022-10-15T19:56:22.675Z,80.18
2022-10-15T19:59:10.226Z,77.97
2022-10-15T20:02:02.807Z,79.61
2022-10-15T20:04:49.882Z,77.52
2022-10-15T20:07:37.438Z,77.65
2022-10-15T20:10:26.635Z,77.52
2022-10-15T20:13:14.709Z,77.68
2022-10-15T20:16:03.042Z,78.62
2022-10-15T20:18:51.646Z,77.75
2022-10-15T20:21:44.904Z,78.43
2022-10-15T20:24:32.551Z,78.94
2022-10-15T20:27:25.115Z,77.59
2022-10-15T20:30:15.875Z,76.68
2022-10-15T20:33:06.239Z,75.93
2022-10-15T20:35:54.516Z,76.59
2022-10-15T20:38:44.872Z,78.03
2022-10-15T20:41:31.647Z,77.04
2022-10-15T20:44:25.611Z,77.83
2022-10-15T20:47:13.405Z,78.61
2022-10-15T20:50:04.491Z,77.55
2022-10-15T20:52:51.632Z,78.49
2022-10-15T20:55:42.154Z,78.28
2022-10-15T20:58:29.705Z,77.57
2022-10-15T21:01:16.700Z,77.06
2022-10-15T21:04:04.652Z,77.47
2022-10-15T21:06:51.661Z,75.30
2022-10-15T21:09:41.331Z,76.14
2022-10-15T21:12:27.837Z,76.51
2022-10-15T21:15:14.702Z,78.11
2022-10-15T21:18:01.559Z,78.09
2022-10-15T21:20:49.458Z,77.53
2022-10-15T21:23:36.646Z,76.70
2022-10-15T21:26:24.176Z,78.72
2022-10-15T21:29:16.412Z,77.02
2022-10-15T21:32:03.818Z,76.13
2022-10-15T21:34:49.821Z,78.36
2022-10-15T21:37:37.935Z,77.22
2022-10-15T21:40:23.782Z,76.98
2022-10-15T21:43:10.557Z,78.20
2022-10-15T21:46:06.411Z,78.87
2022-10-15T21:48:55.336Z,76.35
2022-10-15T21:51:41.545Z,80.67
2022-10-15T21:54:31.602Z,77.83
2022-10-15T21:57:17.677Z,78.24
2022-10-15T22:00:16.425Z,80.78
2022-10-15T22:03:03.665Z,81.50
2022-10-15T22:05:51.558Z,81.14
2022-10-15T22:08:38.287Z,81.22
2022-10-15T22:11:27.772Z,78.22
2022-10-15T22:14:15.250Z,77.52
2022-10-15T22:17:01.547Z,80.53
2022-10-15T22:19:50.140Z,77.43
2022-10-15T22:22:36.424Z,77.05
2022-10-15T22:25:23.509Z,75.60
2022-10-15T22:28:09.856Z,78.79
2022-10-15T22:31:01.713Z,75.05
2022-10-15T22:33:48.137Z,75.97
2022-10-15T22:36:35.308Z,78.04
2022-10-15T22:39:22.482Z,76.94
2022-10-15T22:42:08.727Z,78.65
2022-10-15T22:44:54.892Z,80.41
2022-10-15T22:47:41.751Z,77.38
2022-10-15T22:50:29.454Z,80.33
2022-10-15T22:53:16.485Z,80.86
2022-10-15T22:56:04.610Z,81.65
2022-10-15T22:58:50.966Z,78.10
2022-10-15T23:01:37.080Z,78.27
2022-10-15T23:04:23.531Z,79.13
2022-10-15T23:07:09.417Z,78.52
2022-10-15T23:09:55.688Z,78.85
2022-10-15T23:12:41.959Z,77.12
2022-10-15T23:15:28.457Z,77.32
2022-10-15T23:18:14.547Z,79.72
2022-10-15T23:21:09.494Z,77.56
2022-10-15T23:23:55.421Z,78.07
2022-10-15T23:26:43.493Z,78.96
2022-10-15T23:29:29.893Z,76.88
2022-10-15T23:32:16.291Z,78.85
2022-10-15T23:35:03.117Z,78.87
2022-10-15T23:37:49.118Z,81.36
2022-10-15T23:40:35.051Z,78.99
2022-10-15T23:43:22.843Z,78.30
2022-10-15T23:46:08.904Z,77.94
2022-10-15T23:48:55.472Z,77.76
2022-10-15T23:51:41.651Z,79.56
2022-10-15T23:54:28.485Z,77.90
2022-10-15T23:57:15.738Z,77.07
